createdAt,value
2023-05-10T00:00:53.337Z,31.22
2023-05-10T00:01:53.368Z,34.59
2023-05-10T00:02:53.474Z,32.97
2023-05-10T00:03:53.507Z,27.26
2023-05-10T00:04:53.420Z,35.97
2023-05-10T00:05:53.432Z,36.00
2023-05-10T00:06:53.435Z,27.44
2023-05-10T00:07:53.496Z,29.21
2023-05-10T00:08:53.549Z,35.35
2023-05-10T00:09:53.548Z,35.77
2023-05-10T00:10:53.597Z,37.55
2023-05-10T00:11:53.635Z,31.87
2023-05-10T00:12:53.675Z,24.72
2023-05-10T00:13:53.677Z,30.73
2023-05-10T00:14:53.658Z,36.18
2023-05-10T00:15:53.708Z,32.24
2023-05-10T00:16:53.746Z,36.27
2023-05-10T00:17:53.822Z,33.48
2023-05-10T00:18:53.776Z,26.47
2023-05-10T00:19:53.787Z,34.19
2023-05-10T00:20:53.825Z,28.62
2023-05-10T00:21:53.855Z,33.57
2023-05-10T00:22:53.851Z,36.05
2023-05-10T00:23:54.177Z,31.14
2023-05-10T00:24:53.959Z,32.71
2023-05-10T00:25:53.943Z,28.68
2023-05-10T00:26:53.993Z,34.23
2023-05-10T00:27:54.034Z,28.60
2023-05-10T00:28:54.057Z,28.17
2023-05-10T00:29:54.089Z,34.77
2023-05-10T00:30:54.123Z,30.95
2023-05-10T00:31:54.181Z,33.67
2023-05-10T00:32:54.250Z,37.91
2023-05-10T00:33:54.195Z,33.97
2023-05-10T00:34:54.179Z,31.21
2023-05-10T00:35:54.242Z,31.15
2023-05-10T00:36:54.263Z,29.82
2023-05-10T00:37:54.319Z,32.10
2023-05-10T00:38:54.644Z,31.58
2023-05-10T00:39:54.351Z,32.52
2023-05-10T00:40:54.447Z,30.52
2023-05-10T00:41:54.437Z,35.05
2023-05-10T00:42:54.467Z,36.94
2023-05-10T00:43:54.491Z,39.23
2023-05-10T00:44:54.520Z,32.76
2023-05-10T00:45:54.597Z,25.50
2023-05-10T00:46:54.587Z,35.39
2023-05-10T00:47:54.679Z,32.95
2023-05-10T00:48:54.715Z,29.76
2023-05-10T00:49:54.719Z,32.63
2023-05-10T00:50:54.698Z,34.62
2023-05-10T00:51:54.779Z,34.91
2023-05-10T00:52:54.805Z,33.07
2023-05-10T00:53:55.189Z,35.79
2023-05-10T00:54:54.881Z,28.95
2023-05-10T00:55:54.876Z,36.11
2023-05-10T00:56:54.970Z,30.65
2023-05-10T00:57:54.977Z,31.29
2023-05-10T00:58:55.170Z,33.75
2023-05-10T00:59:55.027Z,35.11
2023-05-10T01:00:55.066Z,32.15
2023-05-10T01:01:55.122Z,31.97
2023-05-10T01:02:55.196Z,29.17
2023-05-10T01:03:55.678Z,38.18
2023-05-10T01:04:55.263Z,31.20
2023-05-10T01:05:55.217Z,28.58
2023-05-10T01:06:55.282Z,27.08
2023-05-10T01:07:55.348Z,28.92
2023-05-10T01:08:55.715Z,34.91
2023-05-10T01:09:55.390Z,32.56
2023-05-10T01:10:55.403Z,33.12
2023-05-10T01:11:55.462Z,34.75
2023-05-10T01:12:55.558Z,30.06
2023-05-10T01:13:55.708Z,36.83
2023-05-10T01:14:55.574Z,33.76
2023-05-10T01:15:55.596Z,32.11
2023-05-10T01:16:55.628Z,34.06
2023-05-10T01:17:55.720Z,34.07
2023-05-10T01:18:55.691Z,26.49
2023-05-10T01:19:55.750Z,28.83
2023-05-10T01:20:55.787Z,33.31
2023-05-10T01:21:55.790Z,32.20
2023-05-10T01:22:55.825Z,35.91
2023-05-10T01:23:56.191Z,33.83
2023-05-10T01:24:55.902Z,32.81
2023-05-10T01:25:56.004Z,37.70
2023-05-10T01:26:55.983Z,36.95
2023-05-10T01:27:56.029Z,34.98
2023-05-10T01:28:56.217Z,33.33
2023-05-10T01:30:09.170Z,35.96
2023-05-10T01:30:57.112Z,36.00
2023-05-10T01:31:56.066Z,36.55
2023-05-10T01:32:56.107Z,36.26
2023-05-10T01:33:56.269Z,37.72
2023-05-10T01:34:56.073Z,30.87
2023-05-10T01:35:56.068Z,35.20
2023-05-10T01:36:56.036Z,36.82
2023-05-10T01:37:56.084Z,31.48
2023-05-10T01:38:56.185Z,33.26
2023-05-10T01:39:56.008Z,33.01
2023-05-10T01:40:56.019Z,36.22
2023-05-10T01:41:56.008Z,36.08
2023-05-10T01:42:56.002Z,34.27
2023-05-10T01:43:55.963Z,35.97
2023-05-10T01:44:55.987Z,27.31
2023-05-10T01:45:56.037Z,33.71
2023-05-10T01:46:56.256Z,39.64
2023-05-10T01:47:56.138Z,37.22
2023-05-10T01:48:56.126Z,34.35
2023-05-10T01:49:56.179Z,36.99
2023-05-10T01:50:56.203Z,32.60
2023-05-10T01:51:56.275Z,37.80
2023-05-10T01:52:56.290Z,34.77
2023-05-10T01:53:56.309Z,39.53
2023-05-10T01:54:56.339Z,27.71
2023-05-10T01:55:56.404Z,32.57
2023-05-10T01:56:56.449Z,38.67
2023-05-10T01:57:56.440Z,38.20
2023-05-10T01:58:56.521Z,37.37
2023-05-10T01:59:56.497Z,32.49
2023-05-10T02:00:56.604Z,31.14
2023-05-10T02:01:56.656Z,34.16
2023-05-10T02:02:56.687Z,35.29
2023-05-10T02:03:56.751Z,36.59
2023-05-10T02:04:56.695Z,40.18
2023-05-10T02:05:56.752Z,31.86
2023-05-10T02:06:56.796Z,36.79
2023-05-10T02:07:56.848Z,34.14
2023-05-10T02:08:56.939Z,34.95
2023-05-10T02:09:56.920Z,36.11
2023-05-10T02:10:56.940Z,35.76
2023-05-10T02:11:56.975Z,34.04
2023-05-10T02:12:57.074Z,34.51
2023-05-10T02:13:57.236Z,28.80
2023-05-10T02:14:57.081Z,30.47
2023-05-10T02:15:57.099Z,35.81
2023-05-10T02:16:57.236Z,38.80
2023-05-10T02:17:57.229Z,29.99
2023-05-10T02:18:57.725Z,37.92
2023-05-10T02:19:57.277Z,36.40
2023-05-10T02:20:57.318Z,37.59
2023-05-10T02:21:57.335Z,36.62
2023-05-10T02:22:57.356Z,36.88
2023-05-10T02:23:57.402Z,37.57
2023-05-10T02:24:57.468Z,34.09
2023-05-10T02:25:57.504Z,35.12
2023-05-10T02:26:57.532Z,30.99
2023-05-10T02:27:57.589Z,35.33
2023-05-10T02:28:57.653Z,39.38
2023-05-10T02:29:57.726Z,29.58
2023-05-10T02:30:57.682Z,30.56
2023-05-10T02:31:57.737Z,27.46
2023-05-10T02:32:57.841Z,25.16
2023-05-10T02:33:57.800Z,38.39
2023-05-10T02:34:57.823Z,34.68
2023-05-10T02:35:57.881Z,30.84
2023-05-10T02:36:57.906Z,35.45
2023-05-10T02:37:57.916Z,30.45
2023-05-10T02:38:58.007Z,35.10
2023-05-10T02:39:58.043Z,32.58
2023-05-10T02:40:58.042Z,27.69
2023-05-10T02:41:58.103Z,28.45
2023-05-10T02:42:58.098Z,33.65
2023-05-10T02:43:58.178Z,34.61
2023-05-10T02:44:58.223Z,32.99
2023-05-10T02:45:58.252Z,32.83
2023-05-10T02:46:58.296Z,33.02
2023-05-10T02:47:58.339Z,31.71
2023-05-10T02:48:58.715Z,31.22
2023-05-10T02:49:58.355Z,31.55
2023-05-10T02:50:58.400Z,32.80
2023-05-10T02:51:58.453Z,33.02
2023-05-10T02:52:58.477Z,36.14
2023-05-10T02:53:58.589Z,35.45
2023-05-10T02:54:58.567Z,25.00
2023-05-10T02:55:58.595Z,32.34
2023-05-10T02:56:58.587Z,34.98
2023-05-10T02:57:58.646Z,34.22
2023-05-10T02:58:58.687Z,30.11
2023-05-10T02:59:58.737Z,32.34
2023-05-10T03:00:58.744Z,32.46
2023-05-10T03:01:58.808Z,32.37
2023-05-10T03:02:58.852Z,29.48
2023-05-10T03:03:59.235Z,28.94
2023-05-10T03:04:58.952Z,29.47
2023-05-10T03:05:58.925Z,28.73
2023-05-10T03:06:58.957Z,33.67
2023-05-10T03:07:58.979Z,35.02
2023-05-10T03:08:59.018Z,32.24
2023-05-10T03:09:59.032Z,33.01
2023-05-10T03:10:59.086Z,32.03
2023-05-10T03:11:59.127Z,27.68
2023-05-10T03:12:59.170Z,28.60
2023-05-10T03:13:59.177Z,31.83
2023-05-10T03:14:59.252Z,33.53
2023-05-10T03:15:59.318Z,31.82
2023-05-10T03:16:59.318Z,34.88
2023-05-10T03:17:59.346Z,30.47
2023-05-10T03:18:59.379Z,31.72
2023-05-10T03:19:59.396Z,34.19
2023-05-10T03:20:59.390Z,33.52
2023-05-10T03:21:59.463Z,28.61
2023-05-10T03:22:59.470Z,37.85
2023-05-10T03:23:59.523Z,36.22
2023-05-10T03:24:59.542Z,30.06
2023-05-10T03:25:59.571Z,37.05
2023-05-10T03:26:59.614Z,31.17
2023-05-10T03:27:59.650Z,32.48
2023-05-10T03:28:59.649Z,35.82
2023-05-10T03:29:59.672Z,35.88
2023-05-10T03:30:59.765Z,32.98
2023-05-10T03:31:59.706Z,34.11
2023-05-10T03:32:59.758Z,35.83
2023-05-10T03:33:59.801Z,37.06
2023-05-10T03:34:59.852Z,33.41
2023-05-10T03:35:59.856Z,33.35
2023-05-10T03:36:59.891Z,32.64
2023-05-10T03:37:59.975Z,37.25
2023-05-10T03:39:00.276Z,31.19
2023-05-10T03:39:59.969Z,35.97
2023-05-10T03:41:00.034Z,35.54
2023-05-10T03:42:00.073Z,34.37
2023-05-10T03:43:00.100Z,34.59
2023-05-10T03:44:00.187Z,35.62
2023-05-10T03:45:00.159Z,35.16
2023-05-10T03:46:00.177Z,34.30
2023-05-10T03:47:00.359Z,34.71
2023-05-10T03:48:00.345Z,34.15
2023-05-10T03:49:00.307Z,31.50
2023-05-10T03:50:00.477Z,33.85
2023-05-10T03:51:00.385Z,31.62
2023-05-10T03:52:00.420Z,34.75
2023-05-10T03:53:00.474Z,37.88
2023-05-10T03:54:00.497Z,33.24
2023-05-10T03:55:00.548Z,33.24
2023-05-10T03:56:00.568Z,33.68
2023-05-10T03:57:00.578Z,34.28
2023-05-10T03:58:00.613Z,28.66
2023-05-10T03:59:00.652Z,33.85
2023-05-10T04:00:00.695Z,33.80
2023-05-10T04:01:00.704Z,34.11
2023-05-10T04:02:00.785Z,35.75
2023-05-10T04:03:00.859Z,34.59
2023-05-10T04:04:00.933Z,35.69
2023-05-10T04:05:00.859Z,32.91
2023-05-10T04:06:00.978Z,31.66
2023-05-10T04:07:00.967Z,32.43
2023-05-10T04:08:01.012Z,33.50
2023-05-10T04:09:01.236Z,33.48
2023-05-10T04:10:01.090Z,34.02
2023-05-10T04:11:01.116Z,32.95
2023-05-10T04:12:01.157Z,31.83
2023-05-10T04:13:01.227Z,35.07
2023-05-10T04:14:01.291Z,34.19
2023-05-10T04:15:01.265Z,34.57
2023-05-10T04:16:01.297Z,30.24
2023-05-10T04:17:02.089Z,34.17
2023-05-10T04:18:01.484Z,29.35
2023-05-10T04:19:01.441Z,34.27
2023-05-10T04:20:01.484Z,34.50
2023-05-10T04:21:01.545Z,33.13
2023-05-10T04:22:01.571Z,35.43
2023-05-10T04:23:01.599Z,34.21
2023-05-10T04:24:01.653Z,33.65
2023-05-10T04:25:01.716Z,33.83
2023-05-10T04:26:01.723Z,33.18
2023-05-10T04:27:01.762Z,31.44
2023-05-10T04:28:01.803Z,31.91
2023-05-10T04:29:01.848Z,33.40
2023-05-10T04:30:01.857Z,31.99
2023-05-10T04:31:01.970Z,33.35
2023-05-10T04:32:01.932Z,34.45
2023-05-10T04:33:02.002Z,30.80
2023-05-10T04:34:02.036Z,33.85
2023-05-10T04:35:02.044Z,29.66
2023-05-10T04:36:02.107Z,33.32
2023-05-10T04:37:02.162Z,32.81
2023-05-10T04:38:02.188Z,29.37
2023-05-10T04:39:02.223Z,31.39
2023-05-10T04:40:02.257Z,32.53
2023-05-10T04:41:02.294Z,33.13
2023-05-10T04:42:02.358Z,32.61
2023-05-10T04:43:02.388Z,32.22
2023-05-10T04:44:02.438Z,33.45
2023-05-10T04:45:02.518Z,29.89
2023-05-10T04:46:02.530Z,33.47
2023-05-10T04:47:02.539Z,31.09
2023-05-10T04:48:02.585Z,28.72
2023-05-10T04:49:02.771Z,30.75
2023-05-10T04:50:02.658Z,35.01
2023-05-10T04:51:02.688Z,34.77
2023-05-10T04:52:02.737Z,34.08
2023-05-10T04:53:02.801Z,32.24
2023-05-10T04:54:06.633Z,32.16
2023-05-10T04:55:02.802Z,32.30
2023-05-10T04:56:02.824Z,31.06
2023-05-10T04:57:02.795Z,21.41
2023-05-10T04:58:02.794Z,23.02
2023-05-10T04:59:02.815Z,17.49
2023-05-10T05:00:02.786Z,30.07
2023-05-10T05:01:02.888Z,30.86
2023-05-10T05:02:02.897Z,25.00
2023-05-10T05:03:02.822Z,31.54
2023-05-10T05:04:02.737Z,29.88
2023-05-10T05:05:02.755Z,27.45
2023-05-10T05:06:02.774Z,24.86
2023-05-10T05:07:02.742Z,34.76
2023-05-10T05:08:02.732Z,32.82
2023-05-10T05:09:02.773Z,36.09
2023-05-10T05:10:02.714Z,32.44
2023-05-10T05:11:02.761Z,35.40
2023-05-10T05:12:02.697Z,46.81
2023-05-10T05:13:02.721Z,36.89
2023-05-10T05:14:02.775Z,30.93
2023-05-10T05:15:02.716Z,32.03
2023-05-10T05:16:02.693Z,34.31
2023-05-10T05:17:02.699Z,35.27
2023-05-10T05:18:02.792Z,27.40
2023-05-10T05:19:02.802Z,40.31
2023-05-10T05:20:02.659Z,43.86
2023-05-10T05:21:02.662Z,47.62
2023-05-10T05:22:02.624Z,59.07
2023-05-10T05:23:02.601Z,45.11
2023-05-10T05:24:02.643Z,44.33
2023-05-10T05:25:02.681Z,49.29
2023-05-10T05:26:02.750Z,47.26
2023-05-10T05:27:02.793Z,48.01
2023-05-10T05:28:02.815Z,49.41
2023-05-10T05:29:02.863Z,48.06
2023-05-10T05:30:02.929Z,50.48
2023-05-10T05:31:02.994Z,50.84
2023-05-10T05:32:03.193Z,49.92
2023-05-10T05:33:03.141Z,45.91
2023-05-10T05:34:03.168Z,45.37
2023-05-10T05:35:03.321Z,47.40
2023-05-10T05:36:03.262Z,48.47
2023-05-10T05:37:03.305Z,43.40
2023-05-10T05:38:03.353Z,41.36
2023-05-10T05:39:03.398Z,41.71
2023-05-10T05:40:03.465Z,44.06
2023-05-10T05:41:03.728Z,35.82
2023-05-10T05:42:03.751Z,36.99
2023-05-10T05:43:03.858Z,31.17
2023-05-10T05:44:04.033Z,36.99
2023-05-10T05:45:04.485Z,37.00
2023-05-10T05:46:03.834Z,37.23
2023-05-10T05:47:03.854Z,34.34
2023-05-10T05:48:04.010Z,30.72
2023-05-10T05:49:03.950Z,32.30
2023-05-10T05:50:04.276Z,28.34
2023-05-10T05:51:05.856Z,28.26
2023-05-10T05:52:04.113Z,30.22
2023-05-10T05:53:04.071Z,28.06
2023-05-10T05:54:04.092Z,28.16
2023-05-10T05:55:04.332Z,27.30
2023-05-10T05:56:04.033Z,26.30
2023-05-10T05:57:04.000Z,38.63
2023-05-10T05:58:04.070Z,36.87
2023-05-10T05:59:03.989Z,44.33
2023-05-10T06:00:04.021Z,45.61
2023-05-10T06:01:04.011Z,49.06
2023-05-10T06:02:04.021Z,50.62
2023-05-10T06:03:04.037Z,52.01
2023-05-10T06:04:04.112Z,49.27
2023-05-10T06:05:03.956Z,56.52
2023-05-10T06:06:04.001Z,56.97
2023-05-10T06:07:03.954Z,59.13
2023-05-10T06:08:03.980Z,60.62
2023-05-10T06:09:03.914Z,67.83
2023-05-10T06:10:03.973Z,72.52
2023-05-10T06:11:03.933Z,78.97
2023-05-10T06:12:03.914Z,75.35
2023-05-10T06:13:03.980Z,74.80
2023-05-10T06:14:03.881Z,84.43
2023-05-10T06:15:03.898Z,88.41
2023-05-10T06:16:03.866Z,84.82
2023-05-10T06:17:03.895Z,88.83
2023-05-10T06:18:03.965Z,91.94
2023-05-10T06:19:03.888Z,94.86
2023-05-10T06:20:03.900Z,97.98
2023-05-10T06:21:03.893Z,103.73
2023-05-10T06:22:03.928Z,103.70
2023-05-10T06:23:03.819Z,103.05
2023-05-10T06:24:03.918Z,102.99
2023-05-10T06:25:03.805Z,108.69
2023-05-10T06:26:03.844Z,114.75
2023-05-10T06:27:03.796Z,111.69
2023-05-10T06:28:03.772Z,119.28
2023-05-10T06:29:03.805Z,119.11
2023-05-10T06:30:12.339Z,119.79
2023-05-10T06:31:04.828Z,120.10
2023-05-10T06:32:03.765Z,120.25
2023-05-10T06:33:03.910Z,122.32
2023-05-10T06:34:03.748Z,125.35
2023-05-10T06:35:03.815Z,123.73
2023-05-10T06:36:03.751Z,131.26
2023-05-10T06:37:03.764Z,120.22
2023-05-10T06:38:03.724Z,124.35
2023-05-10T06:39:03.717Z,124.05
2023-05-10T06:40:03.731Z,125.23
2023-05-10T06:41:03.685Z,125.96
2023-05-10T06:42:03.702Z,130.75
2023-05-10T06:43:03.711Z,132.35
2023-05-10T06:44:03.662Z,139.97
2023-05-10T06:45:03.675Z,133.39
2023-05-10T06:46:03.689Z,135.79
2023-05-10T06:47:03.654Z,124.54
2023-05-10T06:48:03.800Z,115.80
2023-05-10T06:49:03.695Z,120.68
2023-05-10T06:50:03.699Z,117.84
2023-05-10T06:51:03.720Z,117.40
2023-05-10T06:52:03.716Z,115.55
2023-05-10T06:53:03.724Z,123.66
2023-05-10T06:54:03.778Z,129.07
2023-05-10T06:55:03.887Z,126.33
2023-05-10T06:56:04.542Z,134.97
2023-05-10T06:57:04.740Z,134.79
2023-05-10T06:58:03.778Z,137.12
2023-05-10T06:59:03.793Z,139.14
2023-05-10T07:00:03.862Z,140.10
2023-05-10T07:01:03.808Z,138.81
2023-05-10T07:02:03.825Z,138.32
2023-05-10T07:03:03.757Z,140.33
2023-05-10T07:04:03.742Z,133.65
2023-05-10T07:05:03.818Z,138.68
2023-05-10T07:06:03.777Z,131.27
2023-05-10T07:07:03.688Z,129.58
2023-05-10T07:08:03.696Z,134.96
2023-05-10T07:09:03.676Z,134.22
2023-05-10T07:10:03.703Z,130.73
2023-05-10T07:11:03.673Z,132.51
2023-05-10T07:12:03.661Z,128.16
2023-05-10T07:13:03.744Z,129.85
2023-05-10T07:14:03.663Z,122.26
2023-05-10T07:15:03.668Z,123.19
2023-05-10T07:16:03.635Z,126.08
2023-05-10T07:17:03.707Z,117.09
2023-05-10T07:18:03.803Z,119.16
2023-05-10T07:19:03.671Z,120.55
2023-05-10T07:20:03.828Z,128.27
2023-05-10T07:21:03.610Z,125.71
2023-05-10T07:22:03.610Z,127.38
2023-05-10T07:23:03.620Z,125.92
2023-05-10T07:24:03.578Z,127.86
2023-05-10T07:25:03.851Z,120.56
2023-05-10T07:26:03.570Z,122.28
2023-05-10T07:27:03.543Z,121.57
2023-05-10T07:28:03.537Z,121.76
2023-05-10T07:29:03.536Z,120.05
2023-05-10T07:30:03.574Z,122.78
2023-05-10T07:31:03.610Z,122.54
2023-05-10T07:32:03.555Z,123.93
2023-05-10T07:33:03.580Z,124.38
2023-05-10T07:34:03.544Z,128.36
2023-05-10T07:35:03.528Z,127.34
2023-05-10T07:36:03.560Z,131.10
2023-05-10T07:37:03.516Z,131.24
2023-05-10T07:38:03.494Z,132.35
2023-05-10T07:39:03.488Z,131.09
2023-05-10T07:40:03.501Z,129.41
2023-05-10T07:41:03.491Z,130.71
2023-05-10T07:42:03.499Z,129.38
2023-05-10T07:43:03.465Z,129.55
2023-05-10T07:44:03.480Z,115.14
2023-05-10T07:45:03.979Z,119.15
2023-05-10T07:46:03.440Z,114.81
2023-05-10T07:47:03.434Z,107.89
2023-05-10T07:48:03.469Z,104.10
2023-05-10T07:49:03.427Z,100.83
2023-05-10T07:50:03.881Z,99.60
2023-05-10T07:51:04.359Z,104.49
2023-05-10T07:52:03.424Z,106.04
2023-05-10T07:53:03.364Z,121.26
2023-05-10T07:54:03.401Z,126.90
2023-05-10T07:55:03.381Z,117.74
2023-05-10T07:56:03.364Z,124.27
2023-05-10T07:57:03.369Z,122.90
2023-05-10T07:58:03.334Z,126.37
2023-05-10T07:59:03.408Z,121.37
2023-05-10T08:00:03.340Z,123.79
2023-05-10T08:01:03.320Z,124.20
2023-05-10T08:02:03.332Z,125.65
2023-05-10T08:03:03.467Z,126.45
2023-05-10T08:04:03.560Z,123.07
2023-05-10T08:05:03.315Z,123.96
2023-05-10T08:06:03.309Z,125.86
2023-05-10T08:07:03.287Z,127.29
2023-05-10T08:08:03.265Z,121.10
2023-05-10T08:09:03.253Z,123.79
2023-05-10T08:10:03.345Z,123.87
2023-05-10T08:11:03.259Z,117.62
2023-05-10T08:12:03.265Z,125.07
2023-05-10T08:13:03.225Z,114.94
2023-05-10T08:14:03.249Z,112.07
2023-05-10T08:15:03.210Z,113.49
2023-05-10T08:16:03.276Z,116.26
2023-05-10T08:17:03.230Z,123.97
2023-05-10T08:18:03.266Z,119.84
2023-05-10T08:19:03.309Z,121.95
2023-05-10T08:20:03.233Z,117.84
2023-05-10T08:21:03.191Z,118.60
2023-05-10T08:22:03.168Z,117.43
2023-05-10T08:23:03.184Z,112.93
2023-05-10T08:24:03.145Z,108.53
2023-05-10T08:25:03.169Z,111.24
2023-05-10T08:26:03.126Z,106.16
2023-05-10T08:27:03.149Z,113.07
2023-05-10T08:28:03.121Z,104.29
2023-05-10T08:29:03.162Z,110.96
2023-05-10T08:30:03.402Z,114.34
2023-05-10T08:31:03.120Z,113.10
2023-05-10T08:32:03.092Z,112.33
2023-05-10T08:33:03.155Z,105.77
2023-05-10T08:34:03.079Z,110.52
2023-05-10T08:35:03.364Z,113.24
2023-05-10T08:36:03.045Z,118.24
2023-05-10T08:37:03.058Z,119.23
2023-05-10T08:38:03.027Z,113.60
2023-05-10T08:39:03.031Z,116.12
2023-05-10T08:40:03.370Z,113.35
2023-05-10T08:41:03.077Z,111.70
2023-05-10T08:42:03.176Z,105.32
2023-05-10T08:43:03.215Z,95.72
2023-05-10T08:44:03.253Z,95.99
2023-05-10T08:45:03.319Z,94.10
2023-05-10T08:46:03.769Z,98.85
2023-05-10T08:47:03.497Z,99.83
2023-05-10T08:48:03.536Z,99.72
2023-05-10T08:49:03.485Z,104.17
2023-05-10T08:50:03.896Z,108.98
2023-05-10T08:51:03.455Z,107.97
2023-05-10T08:52:03.480Z,102.82
2023-05-10T08:53:03.487Z,105.39
2023-05-10T08:54:03.515Z,104.99
2023-05-10T08:55:03.880Z,98.21
2023-05-10T08:56:03.475Z,98.34
2023-05-10T08:57:03.470Z,94.50
2023-05-10T08:58:03.447Z,93.93
2023-05-10T08:59:03.443Z,84.71
2023-05-10T09:00:03.873Z,84.77
2023-05-10T09:01:03.494Z,88.71
2023-05-10T09:02:04.431Z,88.91
2023-05-10T09:03:03.481Z,88.71
2023-05-10T09:04:03.571Z,87.11
2023-05-10T09:05:04.038Z,80.92
2023-05-10T09:06:03.446Z,79.30
2023-05-10T09:07:03.407Z,77.53
2023-05-10T09:08:03.422Z,69.95
2023-05-10T09:09:03.393Z,63.68
2023-05-10T09:10:03.873Z,69.19
2023-05-10T09:11:03.382Z,57.96
2023-05-10T09:12:03.390Z,47.95
2023-05-10T09:13:03.339Z,49.67
2023-05-10T09:14:03.348Z,45.59
2023-05-10T09:15:03.402Z,47.46
2023-05-10T09:16:10.202Z,47.47
2023-05-10T09:17:04.365Z,47.53
2023-05-10T09:18:03.440Z,48.58
2023-05-10T09:19:03.378Z,45.25
2023-05-10T09:20:03.343Z,44.72
2023-05-10T09:21:03.343Z,31.81
2023-05-10T09:22:03.319Z,28.01
2023-05-10T09:23:03.289Z,41.38
2023-05-10T09:24:03.254Z,50.76
2023-05-10T09:25:03.278Z,27.43
2023-05-10T09:26:03.338Z,37.50
2023-05-10T09:27:03.296Z,31.86
2023-05-10T09:28:03.326Z,38.36
2023-05-10T09:29:03.225Z,38.57
2023-05-10T09:30:03.268Z,27.19
2023-05-10T09:31:03.273Z,36.37
2023-05-10T09:32:03.234Z,37.89
2023-05-10T09:33:03.248Z,31.75
2023-05-10T09:34:03.229Z,25.89
2023-05-10T09:35:03.229Z,28.19
2023-05-10T09:36:03.395Z,27.19
2023-05-10T09:37:03.342Z,27.77
2023-05-10T09:38:03.353Z,31.95
2023-05-10T09:39:03.397Z,34.91
2023-05-10T09:40:03.432Z,26.85
2023-05-10T09:41:03.890Z,21.76
2023-05-10T09:42:03.487Z,43.55
2023-05-10T09:43:03.538Z,45.52
2023-05-10T09:44:03.576Z,38.45
2023-05-10T09:45:03.598Z,32.01
2023-05-10T09:46:03.947Z,31.40
2023-05-10T09:47:03.657Z,38.86
2023-05-10T09:48:03.701Z,34.06
2023-05-10T09:49:03.685Z,43.72
2023-05-10T09:50:03.754Z,43.95
2023-05-10T09:51:03.899Z,40.23
2023-05-10T09:52:03.846Z,33.11
2023-05-10T09:53:03.872Z,34.92
2023-05-10T09:54:03.884Z,39.77
2023-05-10T09:55:03.888Z,34.61
2023-05-10T09:56:04.402Z,27.63
2023-05-10T09:57:04.006Z,38.30
2023-05-10T09:58:03.992Z,39.00
2023-05-10T09:59:04.043Z,29.63
2023-05-10T10:00:04.049Z,36.54
2023-05-10T10:01:04.463Z,39.41
2023-05-10T10:02:04.958Z,28.44
2023-05-10T10:03:04.174Z,33.21
2023-05-10T10:04:04.177Z,25.00
2023-05-10T10:05:04.401Z,36.58
2023-05-10T10:06:04.251Z,41.52
2023-05-10T10:07:04.317Z,37.08
2023-05-10T10:08:04.317Z,28.85
2023-05-10T10:09:04.349Z,27.50
2023-05-10T10:10:04.382Z,30.09
2023-05-10T10:11:04.938Z,34.27
2023-05-10T10:12:04.415Z,25.74
2023-05-10T10:13:04.461Z,33.81
2023-05-10T10:14:04.506Z,34.73
2023-05-10T10:15:04.560Z,29.73
2023-05-10T10:16:04.645Z,34.54
2023-05-10T10:17:07.492Z,30.64
2023-05-10T10:18:04.702Z,30.81
2023-05-10T10:19:04.644Z,32.15
2023-05-10T10:20:04.596Z,32.42
2023-05-10T10:21:04.579Z,32.45
2023-05-10T10:22:04.612Z,21.27
2023-05-10T10:23:04.629Z,36.99
2023-05-10T10:24:04.575Z,35.85
2023-05-10T10:25:04.556Z,40.36
2023-05-10T10:26:04.622Z,32.57
2023-05-10T10:27:04.599Z,25.00
2023-05-10T10:28:04.580Z,28.24
2023-05-10T10:29:04.564Z,30.42
2023-05-10T10:30:04.536Z,32.67
2023-05-10T10:31:04.598Z,43.23
2023-05-10T10:32:04.535Z,32.25
2023-05-10T10:33:13.224Z,31.81
2023-05-10T10:34:05.518Z,32.28
2023-05-10T10:35:04.515Z,33.54
2023-05-10T10:36:04.475Z,35.21
2023-05-10T10:37:04.519Z,35.94
2023-05-10T10:38:04.494Z,35.72
2023-05-10T10:39:04.520Z,24.95
2023-05-10T10:40:04.488Z,35.10
2023-05-10T10:41:04.972Z,49.06
2023-05-10T10:42:04.505Z,55.13
2023-05-10T10:43:04.473Z,70.54
2023-05-10T10:44:04.468Z,68.77
2023-05-10T10:45:04.508Z,62.23
2023-05-10T10:46:04.552Z,75.38
2023-05-10T10:47:05.477Z,83.95
2023-05-10T10:48:04.696Z,104.22
2023-05-10T10:49:04.702Z,111.17
2023-05-10T10:50:04.716Z,122.07
2023-05-10T10:51:04.909Z,113.80
2023-05-10T10:52:04.743Z,111.41
2023-05-10T10:53:04.849Z,180.32
2023-05-10T10:54:04.842Z,162.57
2023-05-10T10:55:04.917Z,138.35
2023-05-10T10:56:04.903Z,146.51
2023-05-10T10:57:04.997Z,145.06
2023-05-10T10:58:04.972Z,140.08
2023-05-10T10:59:05.003Z,140.53
2023-05-10T11:00:05.031Z,136.43
2023-05-10T11:01:05.435Z,126.20
2023-05-10T11:02:05.120Z,140.72
2023-05-10T11:03:05.217Z,128.52
2023-05-10T11:04:05.272Z,139.79
2023-05-10T11:05:05.205Z,121.38
2023-05-10T11:06:05.411Z,126.71
2023-05-10T11:07:05.279Z,134.93
2023-05-10T11:08:05.322Z,139.65
2023-05-10T11:09:05.331Z,144.33
2023-05-10T11:10:05.396Z,137.63
2023-05-10T11:11:05.489Z,137.96
2023-05-10T11:12:05.460Z,135.71
2023-05-10T11:13:05.504Z,117.49
2023-05-10T11:14:05.532Z,137.47
2023-05-10T11:15:05.539Z,141.62
2023-05-10T11:16:05.938Z,127.62
2023-05-10T11:17:05.695Z,125.11
2023-05-10T11:18:05.712Z,132.76
2023-05-10T11:19:05.710Z,130.43
2023-05-10T11:20:05.732Z,138.02
2023-05-10T11:21:05.935Z,140.28
2023-05-10T11:22:05.763Z,144.89
2023-05-10T11:23:05.825Z,147.96
2023-05-10T11:24:05.846Z,138.88
2023-05-10T11:25:05.904Z,146.68
2023-05-10T11:26:05.963Z,153.48
2023-05-10T11:27:05.967Z,146.56
2023-05-10T11:28:05.982Z,156.67
2023-05-10T11:29:06.111Z,144.36
2023-05-10T11:30:06.044Z,139.97
2023-05-10T11:31:06.501Z,139.75
2023-05-10T11:32:06.119Z,135.51
2023-05-10T11:33:06.163Z,130.43
2023-05-10T11:34:06.179Z,142.91
2023-05-10T11:35:06.171Z,141.44
2023-05-10T11:36:06.454Z,150.57
2023-05-10T11:37:06.222Z,149.55
2023-05-10T11:38:06.267Z,143.95
2023-05-10T11:39:06.366Z,142.05
2023-05-10T11:40:06.318Z,137.29
2023-05-10T11:41:06.427Z,130.97
2023-05-10T11:42:06.429Z,121.42
2023-05-10T11:43:06.419Z,121.64
2023-05-10T11:44:06.467Z,110.57
2023-05-10T11:45:06.480Z,108.59
2023-05-10T11:46:06.556Z,107.06
2023-05-10T11:47:06.504Z,111.56
2023-05-10T11:48:06.662Z,113.85
2023-05-10T11:49:06.597Z,102.34
2023-05-10T11:50:06.678Z,104.93
2023-05-10T11:51:06.965Z,102.27
2023-05-10T11:52:06.721Z,98.37
2023-05-10T11:53:06.791Z,111.59
2023-05-10T11:54:06.814Z,101.58
2023-05-10T11:55:06.856Z,103.89
2023-05-10T11:56:06.941Z,94.76
2023-05-10T11:57:06.911Z,89.09
2023-05-10T11:58:06.965Z,87.03
2023-05-10T11:59:07.038Z,100.46
2023-05-10T12:00:07.038Z,99.73
2023-05-10T12:01:07.157Z,86.67
2023-05-10T12:02:07.203Z,84.26
2023-05-10T12:03:07.277Z,86.89
2023-05-10T12:04:07.333Z,98.03
2023-05-10T12:05:07.322Z,87.10
2023-05-10T12:06:07.373Z,94.18
2023-05-10T12:07:07.428Z,88.69
2023-05-10T12:08:07.474Z,89.04
2023-05-10T12:09:07.525Z,83.42
2023-05-10T12:10:07.582Z,81.96
2023-05-10T12:11:07.664Z,91.58
2023-05-10T12:12:07.730Z,88.88
2023-05-10T12:13:07.756Z,75.21
2023-05-10T12:14:07.791Z,81.72
2023-05-10T12:15:07.863Z,94.11
2023-05-10T12:16:07.987Z,81.66
2023-05-10T12:17:07.978Z,80.10
2023-05-10T12:18:08.102Z,88.84
2023-05-10T12:19:08.217Z,80.09
2023-05-10T12:20:08.188Z,95.00
2023-05-10T12:21:08.472Z,89.36
2023-05-10T12:22:08.297Z,86.57
2023-05-10T12:23:08.372Z,74.74
2023-05-10T12:24:08.380Z,75.36
2023-05-10T12:25:08.437Z,86.63
2023-05-10T12:26:08.958Z,78.74
2023-05-10T12:27:08.596Z,78.97
2023-05-10T12:28:08.647Z,81.99
2023-05-10T12:29:08.694Z,66.84
2023-05-10T12:30:08.790Z,77.12
2023-05-10T12:31:09.030Z,79.87
2023-05-10T12:32:09.048Z,88.04
2023-05-10T12:33:08.981Z,74.45
2023-05-10T12:34:08.959Z,80.59
2023-05-10T12:35:09.019Z,70.17
2023-05-10T12:36:09.144Z,70.81
2023-05-10T12:37:09.185Z,78.71
2023-05-10T12:38:09.246Z,82.84
2023-05-10T12:39:09.288Z,72.52
2023-05-10T12:40:09.389Z,79.70
2023-05-10T12:41:09.577Z,72.98
2023-05-10T12:42:09.461Z,68.45
2023-05-10T12:43:09.541Z,66.98
2023-05-10T12:44:09.604Z,74.17
2023-05-10T12:45:09.671Z,68.27
2023-05-10T12:46:10.067Z,64.48